sensor_id;sensor_type;location;lat;lon;timestamp;pressure;altitude;pressure_sealevel;temperature;humidity
59877;BME280;45749;51.140;17.184;2023-01-24T00:01:16;102184.94;;;1.33;100.00
59877;BME280;45749;51.140;17.184;2023-01-24T00:03:42;102180.63;;;1.31;100.00
59877;BME280;45749;51.140;17.184;2023-01-24T00:06:08;102174.50;;;1.35;100.00
59877;BME280;45749;51.140;17.184;2023-01-24T00:08:33;102178.88;;;1.31;100.00
59877;BME280;45749;51.140;17.184;2023-01-24T00:11:00;102177.13;;;1.33;100.00
59877;BME280;45749;51.140;17.184;2023-01-24T00:13:27;102187.53;;;1.33;100.00
59877;BME280;45749;51.140;17.184;2023-01-24T00:16:03;102179.75;;;1.32;100.00
59877;BME280;45749;51.140;17.184;2023-01-24T00:18:28;102182.31;;;1.35;100.00
59877;BME280;45749;51.140;17.184;2023-01-24T00:21:11;102178.88;;;1.36;100.00
59877;BME280;45749;51.140;17.184;2023-01-24T00:23:58;102179.75;;;1.33;100.00
59877;BME280;45749;51.140;17.184;2023-01-24T00:26:24;102185.81;;;1.34;100.00
59877;BME280;45749;51.140;17.184;2023-01-24T00:28:50;102182.34;;;1.33;100.00
59877;BME280;45749;51.140;17.184;2023-01-24T00:31:16;102178.88;;;1.33;100.00
59877;BME280;45749;51.140;17.184;2023-01-24T00:33:41;102172.84;;;1.29;100.00
59877;BME280;45749;51.140;17.184;2023-01-24T00:36:08;102181.44;;;1.37;100.00
59877;BME280;45749;51.140;17.184;2023-01-24T00:38:34;102180.63;;;1.35;100.00
59877;BME280;45749;51.140;17.184;2023-01-24T00:40:59;102183.19;;;1.38;100.00
59877;BME280;45749;51.140;17.184;2023-01-24T00:43:25;102181.47;;;1.39;100.00
59877;BME280;45749;51.140;17.184;2023-01-24T00:45:54;102191.00;;;1.38;100.00
59877;BME280;45749;51.140;17.184;2023-01-24T00:48:20;102197.03;;;1.40;100.00
59877;BME280;45749;51.140;17.184;2023-01-24T00:50:45;102186.66;;;1.36;100.00
59877;BME280;45749;51.140;17.184;2023-01-24T00:53:11;102193.59;;;1.37;100.00
59877;BME280;45749;51.140;17.184;2023-01-24T00:55:44;102197.06;;;1.42;100.00
59877;BME280;45749;51.140;17.184;2023-01-24T00:58:10;102203.13;;;1.43;100.00
59877;BME280;45749;51.140;17.184;2023-01-24T01:00:36;102210.91;;;1.43;100.00
59877;BME280;45749;51.140;17.184;2023-01-24T01:03:04;102213.53;;;1.39;100.00
59877;BME280;45749;51.140;17.184;2023-01-24T01:05:30;102207.47;;;1.34;100.00
59877;BME280;45749;51.140;17.184;2023-01-24T01:07:55;102205.75;;;1.33;100.00
59877;BME280;45749;51.140;17.184;2023-01-24T01:10:20;102206.63;;;1.35;100.00
59877;BME280;45749;51.140;17.184;2023-01-24T01:12:46;102204.88;;;1.36;100.00
59877;BME280;45749;51.140;17.184;2023-01-24T01:15:11;102210.06;;;1.37;100.00
59877;BME280;45749;51.140;17.184;2023-01-24T01:17:37;102210.06;;;1.37;100.00
59877;BME280;45749;51.140;17.184;2023-01-24T01:20:02;102206.59;;;1.38;100.00
59877;BME280;45749;51.140;17.184;2023-01-24T01:22:28;102207.44;;;1.40;100.00
59877;BME280;45749;51.140;17.184;2023-01-24T01:24:53;102210.06;;;1.40;100.00
59877;BME280;45749;51.140;17.184;2023-01-24T01:27:19;102210.06;;;1.40;100.00
59877;BME280;45749;51.140;17.184;2023-01-24T01:29:44;102191.00;;;1.35;100.00
59877;BME280;45749;51.140;17.184;2023-01-24T01:32:10;102196.22;;;1.35;100.00
59877;BME280;45749;51.140;17.184;2023-01-24T01:34:35;102211.81;;;1.37;100.00
59877;BME280;45749;51.140;17.184;2023-01-24T01:37:01;102207.47;;;1.36;100.00
59877;BME280;45749;51.140;17.184;2023-01-24T01:39:26;102219.59;;;1.42;100.00
59877;BME280;45749;51.140;17.184;2023-01-24T01:41:52;102223.94;;;1.43;100.00
59877;BME280;45749;51.140;17.184;2023-01-24T01:44:29;102213.53;;;1.43;100.00
59877;BME280;45749;51.140;17.184;2023-01-24T01:47:15;102210.88;;;1.47;100.00
59877;BME280;45749;51.140;17.184;2023-01-24T01:50:20;102209.19;;;1.43;100.00
59877;BME280;45749;51.140;17.184;2023-01-24T01:52:39;102209.13;;;1.48;100.00
59877;BME280;45749;51.140;17.184;2023-01-24T01:55:10;102205.69;;;1.46;100.00
59877;BME280;45749;51.140;17.184;2023-01-24T01:57:36;102209.16;;;1.46;100.00
59877;BME280;45749;51.140;17.184;2023-01-24T02:00:15;102209.13;;;1.48;100.00
59877;BME280;45749;51.140;17.184;2023-01-24T02:02:48;102185.78;;;1.40;100.00
59877;BME280;45749;51.140;17.184;2023-01-24T02:05:17;102198.75;;;1.48;100.00
59877;BME280;45749;51.140;17.184;2023-01-24T02:07:48;102190.09;;;1.46;100.00
59877;BME280;45749;51.140;17.184;2023-01-24T02:10:18;102176.25;;;1.42;100.00
59877;BME280;45749;51.140;17.184;2023-01-24T02:12:47;102173.59;;;1.47;100.00
59877;BME280;45749;51.140;17.184;2023-01-24T02:15:16;102185.72;;;1.52;100.00
59877;BME280;45749;51.140;17.184;2023-01-24T02:18:01;102181.34;;;1.54;100.00
59877;BME280;45749;51.140;17.184;2023-01-24T02:28:30;102173.53;;;1.57;100.00
59877;BME280;45749;51.140;17.184;2023-01-24T02:31:00;102185.69;;;1.61;100.00
59877;BME280;45749;51.140;17.184;2023-01-24T02:33:26;102174.38;;;1.62;100.00
59877;BME280;45749;51.140;17.184;2023-01-24T02:36:11;102180.44;;;1.66;100.00
59877;BME280;45749;51.140;17.184;2023-01-24T02:38:38;102176.09;;;1.68;100.00
59877;BME280;45749;51.140;17.184;2023-01-24T02:41:06;102172.59;;;1.68;100.00
59877;BME280;45749;51.140;17.184;2023-01-24T02:43:34;102167.41;;;1.69;100.00
59877;BME280;45749;51.140;17.184;2023-01-24T02:46:01;102164.81;;;1.66;100.00
59877;BME280;45749;51.140;17.184;2023-01-24T02:48:27;102166.53;;;1.72;100.00
59877;BME280;45749;51.140;17.184;2023-01-24T02:50:53;102167.38;;;1.72;100.00
59877;BME280;45749;51.140;17.184;2023-01-24T02:53:36;102169.97;;;1.72;100.00
59877;BME280;45749;51.140;17.184;2023-01-24T02:56:06;102177.78;;;1.72;100.00
59877;BME280;45749;51.140;17.184;2023-01-24T02:58:50;102175.16;;;1.74;100.00
59877;BME280;45749;51.140;17.184;2023-01-24T03:01:16;102176.00;;;1.77;100.00
59877;BME280;45749;51.140;17.184;2023-01-24T03:03:44;102169.09;;;1.75;100.00
59877;BME280;45749;51.140;17.184;2023-01-24T03:06:11;102168.25;;;1.73;100.00
59877;BME280;45749;51.140;17.184;2023-01-24T03:08:37;102177.78;;;1.74;100.00
59877;BME280;45749;51.140;17.184;2023-01-24T03:11:04;102176.03;;;1.74;100.00
59877;BME280;45749;51.140;17.184;2023-01-24T03:13:29;102176.94;;;1.72;100.00
59877;BME280;45749;51.140;17.184;2023-01-24T03:16:14;102182.13;;;1.70;100.00
59877;BME280;45749;51.140;17.184;2023-01-24T03:18:58;102171.75;;;1.64;100.00
59877;BME280;45749;51.140;17.184;2023-01-24T03:21:42;102175.22;;;1.64;100.00
59877;BME280;45749;51.140;17.184;2023-01-24T03:24:27;102177.81;;;1.64;100.00
59877;BME280;45749;51.140;17.184;2023-01-24T03:27:11;102194.31;;;1.65;100.00
59877;BME280;45749;51.140;17.184;2023-01-24T03:29:55;102190.84;;;1.66;100.00
59877;BME280;45749;51.140;17.184;2023-01-24T03:32:39;102189.09;;;1.68;100.00
59877;BME280;45749;51.140;17.184;2023-01-24T03:35:23;102198.59;;;1.71;100.00
59877;BME280;45749;51.140;17.184;2023-01-24T03:37:49;102194.28;;;1.70;100.00
59877;BME280;45749;51.140;17.184;2023-01-24T03:40:33;102193.41;;;1.68;100.00
59877;BME280;45749;51.140;17.184;2023-01-24T03:42:59;102188.22;;;1.68;100.00
59877;BME280;45749;51.140;17.184;2023-01-24T03:45:30;102186.50;;;1.67;100.00
59877;BME280;45749;51.140;17.184;2023-01-24T03:47:58;102189.97;;;1.66;100.00
59877;BME280;45749;51.140;17.184;2023-01-24T03:50:24;102183.00;;;1.68;100.00
59877;BME280;45749;51.140;17.184;2023-01-24T03:53:09;102184.72;;;1.73;100.00
59877;BME280;45749;51.140;17.184;2023-01-24T03:55:35;102175.22;;;1.69;100.00
59877;BME280;45749;51.140;17.184;2023-01-24T03:58:01;102189.94;;;1.75;100.00
59877;BME280;45749;51.140;17.184;2023-01-24T04:00:27;102189.03;;;1.74;100.00
59877;BME280;45749;51.140;17.184;2023-01-24T04:02:53;102191.66;;;1.73;100.00
59877;BME280;45749;51.140;17.184;2023-01-24T04:05:19;102185.56;;;1.74;100.00
59877;BME280;45749;51.140;17.184;2023-01-24T04:07:46;102188.22;;;1.72;100.00
59877;BME280;45749;51.140;17.184;2023-01-24T04:10:12;102203.81;;;1.75;100.00
59877;BME280;45749;51.140;17.184;2023-01-24T04:12:39;102194.28;;;1.73;100.00
59877;BME280;45749;51.140;17.184;2023-01-24T04:15:05;102193.41;;;1.72;100.00
59877;BME280;45749;51.140;17.184;2023-01-24T04:17:31;102195.97;;;1.77;100.00
59877;BME280;45749;51.140;17.184;2023-01-24T04:19:57;102198.56;;;1.77;100.00
59877;BME280;45749;51.140;17.184;2023-01-24T04:22:22;102188.19;;;1.74;100.00
59877;BME280;45749;51.140;17.184;2023-01-24T04:24:48;102181.28;;;1.70;100.00
59877;BME280;45749;51.140;17.184;2023-01-24T04:27:13;102195.16;;;1.72;100.00
59877;BME280;45749;51.140;17.184;2023-01-24T04:29:39;102183.91;;;1.67;100.00
59877;BME280;45749;51.140;17.184;2023-01-24T04:32:04;102196.94;;;1.65;100.00
59877;BME280;45749;51.140;17.184;2023-01-24T04:34:30;102199.50;;;1.68;100.00
59877;BME280;45749;51.140;17.184;2023-01-24T04:36:55;102206.44;;;1.69;100.00
59877;BME280;45749;51.140;17.184;2023-01-24T04:39:21;102214.25;;;1.68;100.00
59877;BME280;45749;51.140;17.184;2023-01-24T04:41:46;102209.06;;;1.64;100.00
59877;BME280;45749;51.140;17.184;2023-01-24T04:44:11;102206.47;;;1.66;100.00
59877;BME280;45749;51.140;17.184;2023-01-24T04:46:37;102203.91;;;1.61;100.00
59877;BME280;45749;51.140;17.184;2023-01-24T04:49:02;102205.59;;;1.66;100.00
59877;BME280;45749;51.140;17.184;2023-01-24T04:51:28;102215.16;;;1.65;100.00
59877;BME280;45749;51.140;17.184;2023-01-24T04:53:53;102216.00;;;1.64;100.00
59877;BME280;45749;51.140;17.184;2023-01-24T04:56:19;102208.22;;;1.59;100.00
59877;BME280;45749;51.140;17.184;2023-01-24T04:58:44;102217.75;;;1.60;100.00
59877;BME280;45749;51.140;17.184;2023-01-24T05:01:09;102216.03;;;1.58;100.00
59877;BME280;45749;51.140;17.184;2023-01-24T05:03:35;102219.53;;;1.58;100.00
59877;BME280;45749;51.140;17.184;2023-01-24T05:06:00;102222.13;;;1.57;100.00
59877;BME280;45749;51.140;17.184;2023-01-24T05:08:26;102216.91;;;1.57;100.00
59877;BME280;45749;51.140;17.184;2023-01-24T05:10:51;102213.44;;;1.59;100.00
59877;BME280;45749;51.140;17.184;2023-01-24T05:13:17;102214.31;;;1.57;100.00
59877;BME280;45749;51.140;17.184;2023-01-24T05:15:47;102222.97;;;1.59;100.00
59877;BME280;45749;51.140;17.184;2023-01-24T05:18:13;102224.69;;;1.60;100.00
59877;BME280;45749;51.140;17.184;2023-01-24T05:20:38;102222.97;;;1.60;100.00
59877;BME280;45749;51.140;17.184;2023-01-24T05:23:04;102226.44;;;1.59;100.00
59877;BME280;45749;51.140;17.184;2023-01-24T05:25:29;102235.97;;;1.62;100.00
59877;BME280;45749;51.140;17.184;2023-01-24T05:27:54;102233.38;;;1.59;100.00
59877;BME280;45749;51.140;17.184;2023-01-24T05:30:20;102229.94;;;1.58;100.00
59877;BME280;45749;51.140;17.184;2023-01-24T05:32:45;102228.19;;;1.59;100.00
59877;BME280;45749;51.140;17.184;2023-01-24T05:35:11;102221.22;;;1.58;100.00
59877;BME280;45749;51.140;17.184;2023-01-24T05:37:37;102225.56;;;1.62;100.00
59877;BME280;45749;51.140;17.184;2023-01-24T05:40:03;102226.41;;;1.61;100.00
59877;BME280;45749;51.140;17.184;2023-01-24T05:42:29;102230.78;;;1.62;100.00
59877;BME280;45749;51.140;17.184;2023-01-24T05:44:55;102227.31;;;1.60;100.00
59877;BME280;45749;51.140;17.184;2023-01-24T05:47:20;102227.31;;;1.60;100.00
59877;BME280;45749;51.140;17.184;2023-01-24T05:49:45;102223.00;;;1.56;100.00
59877;BME280;45749;51.140;17.184;2023-01-24T05:52:11;102229.94;;;1.58;100.00
59877;BME280;45749;51.140;17.184;2023-01-24T05:54:36;102230.81;;;1.56;100.00
59877;BME280;45749;51.140;17.184;2023-01-24T05:57:01;102234.28;;;1.52;100.00
59877;BME280;45749;51.140;17.184;2023-01-24T05:59:27;102237.75;;;1.54;100.00
59877;BME280;45749;51.140;17.184;2023-01-24T06:01:52;102223.91;;;1.49;100.00
59877;BME280;45749;51.140;17.184;2023-01-24T06:04:18;102236.88;;;1.50;100.00
59877;BME280;45749;51.140;17.184;2023-01-24T06:06:43;102244.72;;;1.52;100.00
59877;BME280;45749;51.140;17.184;2023-01-24T06:09:08;102247.28;;;1.53;100.00
59877;BME280;45749;51.140;17.184;2023-01-24T06:11:34;102247.31;;;1.52;100.00
59877;BME280;45749;51.140;17.184;2023-01-24T06:14:00;102248.16;;;1.54;100.00
59877;BME280;45749;51.140;17.184;2023-01-24T06:16:25;102255.94;;;1.54;100.00
59877;BME280;45749;51.140;17.184;2023-01-24T06:18:54;102245.56;;;1.49;100.00
59877;BME280;45749;51.140;17.184;2023-01-24T06:23:57;102256.84;;;1.53;100.00
59877;BME280;45749;51.140;17.184;2023-01-24T06:26:23;102257.69;;;1.56;100.00
59877;BME280;45749;51.140;17.184;2023-01-24T06:28:48;102252.50;;;1.53;100.00
59877;BME280;45749;51.140;17.184;2023-01-24T06:31:32;102255.06;;;1.58;100.00
59877;BME280;45749;51.140;17.184;2023-01-24T06:34:07;102264.59;;;1.57;100.00
59877;BME280;45749;51.140;17.184;2023-01-24T06:39:14;102262.00;;;1.57;100.00
59877;BME280;45749;51.140;17.184;2023-01-24T06:41:41;102270.66;;;1.58;100.00
59877;BME280;45749;51.140;17.184;2023-01-24T06:44:09;102270.72;;;1.55;100.00
59877;BME280;45749;51.140;17.184;2023-01-24T06:46:36;102273.28;;;1.56;100.00
59877;BME280;45749;51.140;17.184;2023-01-24T06:49:01;102282.84;;;1.59;100.00
59877;BME280;45749;51.140;17.184;2023-01-24T06:51:27;102276.78;;;1.55;100.00
59877;BME280;45749;51.140;17.184;2023-01-24T06:53:52;102286.28;;;1.59;100.00
59877;BME280;45749;51.140;17.184;2023-01-24T06:56:18;102281.97;;;1.57;100.00
59877;BME280;45749;51.140;17.184;2023-01-24T06:58:43;102281.13;;;1.55;100.00
59877;BME280;45749;51.140;17.184;2023-01-24T07:01:08;102284.56;;;1.57;100.00
59877;BME280;45749;51.140;17.184;2023-01-24T07:03:34;102282.81;;;1.62;100.00
59877;BME280;45749;51.140;17.184;2023-01-24T07:06:00;102291.47;;;1.64;100.00
59877;BME280;45749;51.140;17.184;2023-01-24T07:08:25;102290.59;;;1.63;100.00
59877;BME280;45749;51.140;17.184;2023-01-24T07:10:51;102292.38;;;1.61;100.00
59877;BME280;45749;51.140;17.184;2023-01-24T07:13:16;102284.56;;;1.60;100.00
59877;BME280;45749;51.140;17.184;2023-01-24T07:15:41;102294.09;;;1.66;100.00
59877;BME280;45749;51.140;17.184;2023-01-24T07:18:08;102293.22;;;1.65;100.00
59877;BME280;45749;51.140;17.184;2023-01-24T07:20:34;102296.66;;;1.64;100.00
59877;BME280;45749;51.140;17.184;2023-01-24T07:23:00;102280.22;;;1.57;100.00
59877;BME280;45749;51.140;17.184;2023-01-24T07:25:26;102281.06;;;1.58;100.00
59877;BME280;45749;51.140;17.184;2023-01-24T07:27:52;102287.16;;;1.63;100.00
59877;BME280;45749;51.140;17.184;2023-01-24T07:30:18;102298.41;;;1.67;100.00
59877;BME280;45749;51.140;17.184;2023-01-24T07:32:43;102289.72;;;1.68;100.00
59877;BME280;45749;51.140;17.184;2023-01-24T07:35:09;102292.31;;;1.68;100.00
59877;BME280;45749;51.140;17.184;2023-01-24T07:37:35;102283.66;;;1.64;100.00
59877;BME280;45749;51.140;17.184;2023-01-24T07:40:01;102291.47;;;1.69;100.00
59877;BME280;45749;51.140;17.184;2023-01-24T07:42:26;102297.50;;;1.71;100.00
59877;BME280;45749;51.140;17.184;2023-01-24T07:44:52;102289.75;;;1.66;100.00
59877;BME280;45749;51.140;17.184;2023-01-24T07:47:19;102297.50;;;1.71;100.00
59877;BME280;45749;51.140;17.184;2023-01-24T07:49:45;102299.25;;;1.70;100.00
59877;BME280;45749;51.140;17.184;2023-01-24T07:52:10;102298.41;;;1.71;100.00
59877;BME280;45749;51.140;17.184;2023-01-24T07:54:35;102300.13;;;1.72;100.00
59877;BME280;45749;51.140;17.184;2023-01-24T07:57:01;102300.13;;;1.75;100.00
59877;BME280;45749;51.140;17.184;2023-01-24T07:59:26;102296.66;;;1.75;100.00
59877;BME280;45749;51.140;17.184;2023-01-24T08:01:52;102298.34;;;1.77;100.00
59877;BME280;45749;51.140;17.184;2023-01-24T08:04:17;102295.72;;;1.80;100.00
59877;BME280;45749;51.140;17.184;2023-01-24T08:06:42;102287.09;;;1.75;100.00
59877;BME280;45749;51.140;17.184;2023-01-24T08:09:28;102298.34;;;1.80;100.00
59877;BME280;45749;51.140;17.184;2023-01-24T08:11:54;102289.69;;;1.78;100.00
59877;BME280;45749;51.140;17.184;2023-01-24T08:14:19;102300.94;;;1.83;100.00
59877;BME280;45749;51.140;17.184;2023-01-24T08:16:47;102304.38;;;1.84;100.00
59877;BME280;45749;51.140;17.184;2023-01-24T08:19:12;102293.97;;;1.84;100.00
59877;BME280;45749;51.140;17.184;2023-01-24T08:21:38;102311.31;;;1.93;100.00
59877;BME280;45749;51.140;17.184;2023-01-24T08:24:03;102313.88;;;1.96;100.00
59877;BME280;45749;51.140;17.184;2023-01-24T08:26:29;102306.97;;;1.92;100.00
59877;BME280;45749;51.140;17.184;2023-01-24T08:28:54;102306.13;;;1.91;100.00
59877;BME280;45749;51.140;17.184;2023-01-24T08:31:20;102306.97;;;1.95;100.00
59877;BME280;45749;51.140;17.184;2023-01-24T08:33:45;102306.94;;;1.93;100.00
59877;BME280;45749;51.140;17.184;2023-01-24T08:36:10;102311.28;;;1.96;100.00
59877;BME280;45749;51.140;17.184;2023-01-24T08:38:36;102304.34;;;1.93;100.00
59877;BME280;45749;51.140;17.184;2023-01-24T08:41:06;102307.81;;;1.95;100.00
59877;BME280;45749;51.140;17.184;2023-01-24T08:43:32;102319.06;;;2.02;100.00
59877;BME280;45749;51.140;17.184;2023-01-24T08:45:58;102321.69;;;1.99;100.00
59877;BME280;45749;51.140;17.184;2023-01-24T08:48:23;102311.28;;;1.99;100.00
59877;BME280;45749;51.140;17.184;2023-01-24T08:50:49;102322.50;;;2.07;100.00
59877;BME280;45749;51.140;17.184;2023-01-24T08:53:14;102323.38;;;2.07;100.00
59877;BME280;45749;51.140;17.184;2023-01-24T08:55:40;102322.53;;;2.05;100.00
59877;BME280;45749;51.140;17.184;2023-01-24T08:58:05;102316.44;;;2.06;100.00
59877;BME280;45749;51.140;17.184;2023-01-24T09:00:31;102332.91;;;2.11;100.00
59877;BME280;45749;51.140;17.184;2023-01-24T09:02:57;102335.50;;;2.13;100.00
59877;BME280;45749;51.140;17.184;2023-01-24T09:05:29;102338.09;;;2.13;100.00
59877;BME280;45749;51.140;17.184;2023-01-24T09:07:55;102339.84;;;2.14;100.00
59877;BME280;45749;51.140;17.184;2023-01-24T09:10:21;102344.16;;;2.18;100.00
59877;BME280;45749;51.140;17.184;2023-01-24T09:12:46;102328.53;;;2.17;100.00
59877;BME280;45749;51.140;17.184;2023-01-24T09:15:12;102341.53;;;2.21;100.00
59877;BME280;45749;51.140;17.184;2023-01-24T09:17:37;102336.31;;;2.23;100.00
59877;BME280;45749;51.140;17.184;2023-01-24T09:20:05;102330.25;;;2.21;100.00
59877;BME280;45749;51.140;17.184;2023-01-24T09:22:30;102328.50;;;2.21;100.00
59877;BME280;45749;51.140;17.184;2023-01-24T09:24:56;102336.28;;;2.26;100.00
59877;BME280;45749;51.140;17.184;2023-01-24T09:27:21;102337.16;;;2.26;100.00
59877;BME280;45749;51.140;17.184;2023-01-24T09:29:47;102336.28;;;2.30;100.00
59877;BME280;45749;51.140;17.184;2023-01-24T09:32:12;102344.03;;;2.33;100.00
59877;BME280;45749;51.140;17.184;2023-01-24T09:34:38;102335.38;;;2.34;100.00
59877;BME280;45749;51.140;17.184;2023-01-24T09:37:11;102333.63;;;2.35;100.00
59877;BME280;45749;51.140;17.184;2023-01-24T09:39:36;102337.06;;;2.42;100.00
59877;BME280;45749;51.140;17.184;2023-01-24T09:42:10;102336.16;;;2.46;100.00
59877;BME280;45749;51.140;17.184;2023-01-24T09:44:48;102336.13;;;2.49;100.00
59877;BME280;45749;51.140;17.184;2023-01-24T09:47:24;102333.50;;;2.52;100.00
59877;BME280;45749;51.140;17.184;2023-01-24T09:49:59;102322.22;;;2.51;100.00
59877;BME280;45749;51.140;17.184;2023-01-24T09:52:34;102324.78;;;2.56;100.00
59877;BME280;45749;51.140;17.184;2023-01-24T09:55:14;102329.13;;;2.60;100.00
59877;BME280;45749;51.140;17.184;2023-01-24T09:57:49;102328.22;;;2.63;100.00
59877;BME280;45749;51.140;17.184;2023-01-24T10:02:54;102320.31;;;2.72;100.00
59877;BME280;45749;51.140;17.184;2023-01-24T10:05:21;102307.31;;;2.70;100.00
59877;BME280;45749;51.140;17.184;2023-01-24T10:08:34;102309.88;;;2.75;100.00
59877;BME280;45749;51.140;17.184;2023-01-24T10:11:19;102306.38;;;2.77;100.00
59877;BME280;45749;51.140;17.184;2023-01-24T10:24:37;102300.16;;;2.89;100.00
59877;BME280;45749;51.140;17.184;2023-01-24T10:27:36;102312.28;;;2.98;100.00
59877;BME280;45749;51.140;17.184;2023-01-24T10:33:15;102291.38;;;2.99;100.00
59877;BME280;45749;51.140;17.184;2023-01-24T10:35:52;102299.16;;;3.05;100.00
59877;BME280;45749;51.140;17.184;2023-01-24T10:38:18;102293.06;;;3.05;100.00
59877;BME280;45749;51.140;17.184;2023-01-24T10:41:19;102295.66;;;3.10;100.00
59877;BME280;45749;51.140;17.184;2023-01-24T10:43:49;102300.81;;;3.14;100.00
59877;BME280;45749;51.140;17.184;2023-01-24T10:46:31;102288.66;;;3.13;100.00
59877;BME280;45749;51.140;17.184;2023-01-24T10:49:00;102294.69;;;3.17;100.00
59877;BME280;45749;51.140;17.184;2023-01-24T10:51:27;102292.09;;;3.17;100.00
59877;BME280;45749;51.140;17.184;2023-01-24T10:53:59;102290.34;;;3.17;100.00
59877;BME280;45749;51.140;17.184;2023-01-24T10:56:25;102294.69;;;3.18;100.00
59877;BME280;45749;51.140;17.184;2023-01-24T10:59:03;102294.69;;;3.18;100.00
59877;BME280;45749;51.140;17.184;2023-01-24T11:01:33;102285.13;;;3.17;100.00
59877;BME280;45749;51.140;17.184;2023-01-24T11:04:13;102279.91;;;3.17;100.00
59877;BME280;45749;51.140;17.184;2023-01-24T11:06:42;102285.06;;;3.23;100.00
59877;BME280;45749;51.140;17.184;2023-01-24T11:09:13;102274.63;;;3.22;100.00
59877;BME280;45749;51.140;17.184;2023-01-24T11:11:47;102282.44;;;3.25;100.00
59877;BME280;45749;51.140;17.184;2023-01-24T11:14:20;102284.19;;;3.24;100.00
59877;BME280;45749;51.140;17.184;2023-01-24T11:16:50;102275.47;;;3.25;100.00
59877;BME280;45749;51.140;17.184;2023-01-24T11:22:01;102275.44;;;3.28;100.00
59877;BME280;45749;51.140;17.184;2023-01-24T11:24:28;102271.94;;;3.31;100.00
59877;BME280;45749;51.140;17.184;2023-01-24T11:27:13;102267.56;;;3.32;100.00
59877;BME280;45749;51.140;17.184;2023-01-24T11:29:39;102271.88;;;3.34;100.00
59877;BME280;45749;51.140;17.184;2023-01-24T11:32:36;102266.63;;;3.37;100.00
59877;BME280;45749;51.140;17.184;2023-01-24T11:35:40;102265.75;;;3.38;100.00
59877;BME280;45749;51.140;17.184;2023-01-24T11:38:28;102274.41;;;3.42;100.00
59877;BME280;45749;51.140;17.184;2023-01-24T11:41:02;102264.78;;;3.45;100.00
59877;BME280;45749;51.140;17.184;2023-01-24T11:43:44;102264.78;;;3.45;100.00
59877;BME280;45749;51.140;17.184;2023-01-24T11:51:48;102268.19;;;3.53;100.00
59877;BME280;45749;51.140;17.184;2023-01-24T11:57:28;102269.03;;;3.54;100.00
59877;BME280;45749;51.140;17.184;2023-01-24T12:08:26;102267.25;;;3.59;100.00
59877;BME280;45749;51.140;17.184;2023-01-24T12:16:49;102256.84;;;3.56;100.00
59877;BME280;45749;51.140;17.184;2023-01-24T12:22:21;102253.38;;;3.56;100.00
59877;BME280;45749;51.140;17.184;2023-01-24T12:25:13;102255.06;;;3.58;100.00
59877;BME280;45749;51.140;17.184;2023-01-24T12:27:45;102251.59;;;3.59;100.00
59877;BME280;45749;51.140;17.184;2023-01-24T12:30:35;102249.81;;;3.61;100.00
59877;BME280;45749;51.140;17.184;2023-01-24T12:33:21;102248.97;;;3.58;100.00
59877;BME280;45749;51.140;17.184;2023-01-24T12:35:53;102252.44;;;3.58;100.00
59877;BME280;45749;51.140;17.184;2023-01-24T12:38:39;102255.09;;;3.55;100.00
59877;BME280;45749;51.140;17.184;2023-01-24T12:41:32;102259.47;;;3.56;100.00
59877;BME280;45749;51.140;17.184;2023-01-24T12:44:31;102252.47;;;3.55;100.00
59877;BME280;45749;51.140;17.184;2023-01-24T12:50:23;102253.31;;;3.60;100.00
59877;BME280;45749;51.140;17.184;2023-01-24T12:59:02;102253.25;;;3.62;100.00
59877;BME280;45749;51.140;17.184;2023-01-24T13:01:36;102254.97;;;3.64;100.00
59877;BME280;45749;51.140;17.184;2023-01-24T13:12:04;102249.75;;;3.64;100.00
59877;BME280;45749;51.140;17.184;2023-01-24T13:14:37;102261.91;;;3.67;100.00
59877;BME280;45749;51.140;17.184;2023-01-24T13:28:15;102251.56;;;3.62;100.00
59877;BME280;45749;51.140;17.184;2023-01-24T13:31:18;102248.09;;;3.60;100.00
59877;BME280;45749;51.140;17.184;2023-01-24T13:33:39;102242.00;;;3.60;100.00
59877;BME280;45749;51.140;17.184;2023-01-24T13:36:15;102235.91;;;3.58;100.00
59877;BME280;45749;51.140;17.184;2023-01-24T13:38:43;102246.38;;;3.59;100.00
59877;BME280;45749;51.140;17.184;2023-01-24T13:41:30;102246.38;;;3.58;100.00
59877;BME280;45749;51.140;17.184;2023-01-24T13:44:03;102247.22;;;3.60;100.00
59877;BME280;45749;51.140;17.184;2023-01-24T13:51:59;102249.84;;;3.58;100.00
59877;BME280;45749;51.140;17.184;2023-01-24T13:59:29;102248.22;;;3.49;100.00
59877;BME280;45749;51.140;17.184;2023-01-24T14:01:55;102260.34;;;3.52;100.00
59877;BME280;45749;51.140;17.184;2023-01-24T14:04:39;102248.19;;;3.52;100.00
59877;BME280;45749;51.140;17.184;2023-01-24T14:07:18;102249.06;;;3.53;100.00
59877;BME280;45749;51.140;17.184;2023-01-24T14:09:45;102252.59;;;3.49;100.00
59877;BME280;45749;51.140;17.184;2023-01-24T14:12:16;102254.31;;;3.50;100.00
59877;BME280;45749;51.140;17.184;2023-01-24T14:15:01;102236.97;;;3.44;100.00
59877;BME280;45749;51.140;17.184;2023-01-24T14:20:02;102262.13;;;3.50;100.00
59877;BME280;45749;51.140;17.184;2023-01-24T14:22:38;102261.28;;;3.48;100.00
59877;BME280;45749;51.140;17.184;2023-01-24T14:25:27;102256.94;;;3.47;100.00
59877;BME280;45749;51.140;17.184;2023-01-24T14:28:17;102269.09;;;3.48;100.00
59877;BME280;45749;51.140;17.184;2023-01-24T14:30:50;102266.50;;;3.48;100.00
59877;BME280;45749;51.140;17.184;2023-01-24T14:33:32;102258.72;;;3.45;100.00
59877;BME280;45749;51.140;17.184;2023-01-24T14:36:13;102250.09;;;3.40;100.00